createdAt,value
2022-10-30T00:00:46.235Z,65.28
2022-10-30T00:01:46.279Z,65.48
2022-10-30T00:02:46.291Z,65.48
2022-10-30T00:03:46.210Z,65.78
2022-10-30T00:04:46.182Z,65.68
2022-10-30T00:05:46.186Z,65.58
2022-10-30T00:06:46.203Z,65.51
2022-10-30T00:07:46.179Z,65.41
2022-10-30T00:08:46.255Z,65.61
2022-10-30T00:09:46.151Z,66.22
2022-10-30T00:10:46.133Z,66.32
2022-10-30T00:11:46.161Z,65.78
2022-10-30T00:12:46.114Z,65.48
2022-10-30T00:13:46.114Z,65.92
2022-10-30T00:14:46.079Z,65.81
2022-10-30T00:15:46.085Z,65.81
2022-10-30T00:16:46.090Z,66.12
2022-10-30T00:17:46.078Z,66.32
2022-10-30T00:18:46.044Z,66.12
2022-10-30T00:19:46.027Z,66.32
2022-10-30T00:20:46.149Z,67.23
2022-10-30T00:21:46.027Z,66.93
2022-10-30T00:22:46.002Z,66.12
2022-10-30T00:23:45.997Z,65.81
2022-10-30T00:24:45.979Z,65.71
2022-10-30T00:25:45.966Z,66.12
2022-10-30T00:26:45.987Z,66.32
2022-10-30T00:27:45.953Z,66.22
2022-10-30T00:28:45.934Z,66.12
2022-10-30T00:29:45.960Z,66.42
2022-10-30T00:30:45.912Z,66.12
2022-10-30T00:31:45.919Z,67.63
2022-10-30T00:32:45.907Z,67.02
2022-10-30T00:33:45.878Z,66.93
2022-10-30T00:34:45.871Z,66.52
2022-10-30T00:36:45.881Z,65.51
2022-10-30T00:37:45.834Z,65.61
2022-10-30T00:38:45.827Z,66.22
2022-10-30T00:39:45.861Z,66.12
2022-10-30T00:40:45.808Z,66.32
2022-10-30T00:41:45.811Z,66.02
2022-10-30T00:42:45.787Z,66.12
2022-10-30T00:43:45.780Z,66.42
2022-10-30T00:44:45.767Z,66.93
2022-10-30T00:45:45.763Z,66.42
2022-10-30T00:46:45.761Z,66.72
2022-10-30T00:47:45.750Z,67.13
2022-10-30T00:48:45.728Z,67.13
2022-10-30T00:49:45.712Z,67.43
2022-10-30T00:50:45.703Z,68.33
2022-10-30T00:51:45.713Z,67.13
2022-10-30T00:52:45.687Z,67.23
2022-10-30T00:53:45.665Z,67.23
2022-10-30T00:54:45.656Z,68.13
2022-10-30T00:55:45.648Z,66.82
2022-10-30T00:56:45.632Z,66.96
2022-10-30T00:57:45.643Z,67.86
2022-10-30T00:58:45.612Z,70.39
2022-10-30T00:59:45.605Z,68.07
2022-10-30T01:00:45.594Z,68.17
2022-10-30T01:01:45.618Z,67.26
2022-10-30T01:02:45.727Z,66.96
2022-10-30T01:03:45.560Z,67.16
2022-10-30T01:04:45.569Z,68.37
2022-10-30T01:05:45.539Z,68.57
2022-10-30T01:06:45.535Z,69.08
2022-10-30T01:07:45.541Z,68.98
2022-10-30T01:08:45.573Z,69.68
2022-10-30T01:09:45.499Z,68.37
2022-10-30T01:10:45.485Z,69.58
2022-10-30T01:11:45.478Z,70.19
2022-10-30T01:12:45.504Z,69.68
2022-10-30T01:13:45.492Z,68.77
2022-10-30T01:14:45.450Z,70.79
2022-10-30T01:15:45.446Z,70.69
2022-10-30T01:16:45.448Z,69.78
2022-10-30T01:17:45.433Z,68.37
2022-10-30T01:18:45.533Z,69.58
2022-10-30T01:19:45.399Z,68.37
2022-10-30T01:20:45.380Z,69.18
2022-10-30T01:21:45.399Z,69.98
2022-10-30T01:22:46.958Z,67.86
2022-10-30T01:23:45.400Z,69.48
2022-10-30T01:24:45.336Z,70.49
2022-10-30T01:25:45.327Z,69.58
2022-10-30T01:26:45.351Z,71.20
2022-10-30T01:27:45.308Z,69.58
2022-10-30T01:28:45.296Z,69.58
2022-10-30T01:29:45.289Z,68.98
2022-10-30T01:30:45.285Z,67.76
2022-10-30T01:31:45.429Z,68.07
2022-10-30T01:32:45.257Z,68.87
2022-10-30T01:33:45.235Z,70.89
2022-10-30T01:34:45.252Z,69.89
2022-10-30T01:35:45.216Z,69.58
2022-10-30T01:36:45.237Z,68.17
2022-10-30T01:37:45.203Z,68.74
2022-10-30T01:38:45.190Z,67.26
2022-10-30T01:39:45.195Z,66.96
2022-10-30T01:40:45.183Z,68.37
2022-10-30T01:41:45.182Z,68.51
2022-10-30T01:42:45.151Z,69.42
2022-10-30T01:43:45.135Z,70.73
2022-10-30T01:44:45.147Z,69.62
2022-10-30T01:45:45.110Z,69.92
2022-10-30T01:46:45.127Z,69.01
2022-10-30T01:47:45.117Z,69.21
2022-10-30T01:48:45.115Z,70.73
2022-10-30T01:49:45.101Z,69.82
2022-10-30T01:50:45.135Z,70.53
2022-10-30T01:51:45.120Z,69.71
2022-10-30T01:52:45.072Z,69.75
2022-10-30T01:53:45.098Z,69.04
2022-10-30T01:54:45.026Z,68.94
2022-10-30T01:55:45.080Z,68.63
2022-10-30T01:56:45.087Z,69.24
2022-10-30T01:57:44.988Z,69.14
2022-10-30T01:58:45.019Z,68.63
2022-10-30T01:59:44.966Z,69.34
2022-10-30T02:00:44.958Z,68.94
2022-10-30T02:01:45.103Z,69.24
2022-10-30T02:02:45.007Z,69.14
2022-10-30T02:03:44.917Z,68.74
2022-10-30T02:04:44.911Z,69.75
2022-10-30T02:05:44.893Z,69.85
2022-10-30T02:06:44.908Z,70.76
2022-10-30T02:07:44.900Z,70.25
2022-10-30T02:08:44.865Z,69.85
2022-10-30T02:09:51.362Z,70.86
2022-10-30T02:10:51.653Z,70.46
2022-10-30T02:11:44.869Z,69.31
2022-10-30T02:12:44.825Z,68.71
2022-10-30T02:13:44.824Z,69.92
2022-10-30T02:14:44.807Z,68.91
2022-10-30T02:15:44.792Z,69.01
2022-10-30T02:16:44.821Z,69.71
2022-10-30T02:17:44.785Z,70.62
2022-10-30T02:19:44.761Z,70.56
2022-10-30T02:20:44.753Z,71.47
2022-10-30T02:21:44.773Z,71.06
2022-10-30T02:22:44.788Z,71.77
2022-10-30T02:23:44.718Z,71.47
2022-10-30T02:24:44.704Z,71.17
2022-10-30T02:25:44.701Z,71.77
2022-10-30T02:26:44.737Z,71.57
2022-10-30T02:27:44.665Z,72.28
2022-10-30T02:28:44.656Z,71.87
2022-10-30T02:29:44.647Z,72.28
2022-10-30T02:30:44.661Z,71.57
2022-10-30T02:31:44.676Z,71.91
2022-10-30T02:32:44.637Z,71.91
2022-10-30T02:33:44.600Z,72.72
2022-10-30T02:34:44.596Z,72.81
2022-10-30T02:35:44.589Z,73.22
2022-10-30T02:36:44.577Z,72.81
2022-10-30T02:37:44.587Z,73.12
2022-10-30T02:38:44.564Z,73.25
2022-10-30T02:39:44.565Z,73.66
2022-10-30T02:40:44.541Z,73.05
2022-10-30T02:41:44.538Z,73.96
2022-10-30T02:42:44.583Z,74.07
2022-10-30T02:43:44.507Z,74.16
2022-10-30T02:44:44.487Z,74.07
2022-10-30T02:45:44.470Z,74.60
2022-10-30T02:46:44.479Z,74.51
2022-10-30T02:47:44.472Z,74.30
2022-10-30T02:48:44.447Z,74.40
2022-10-30T02:49:44.439Z,75.01
2022-10-30T02:50:44.436Z,74.71
2022-10-30T02:51:44.407Z,74.60
2022-10-30T02:52:44.429Z,75.35
2022-10-30T02:53:44.457Z,74.95
2022-10-30T02:54:44.386Z,75.55
2022-10-30T02:55:44.374Z,75.55
2022-10-30T02:56:44.375Z,75.15
2022-10-30T02:57:44.405Z,75.15
2022-10-30T02:58:44.559Z,75.15
2022-10-30T02:59:44.331Z,75.55
2022-10-30T03:00:44.356Z,75.85
2022-10-30T03:01:44.436Z,75.55
2022-10-30T03:02:44.362Z,75.04
2022-10-30T03:03:44.287Z,75.76
2022-10-30T03:04:44.276Z,74.84
2022-10-30T03:05:44.283Z,75.25
2022-10-30T03:06:44.251Z,75.04
2022-10-30T03:07:44.263Z,75.35
2022-10-30T03:08:44.247Z,75.55
2022-10-30T03:09:44.231Z,75.04
2022-10-30T03:10:44.229Z,76.16
2022-10-30T03:11:44.201Z,75.55
2022-10-30T03:12:44.216Z,75.45
2022-10-30T03:13:44.184Z,75.69
2022-10-30T03:14:44.178Z,75.89
2022-10-30T03:15:44.162Z,76.09
2022-10-30T03:16:44.210Z,75.89
2022-10-30T03:17:44.174Z,75.89
2022-10-30T03:18:44.130Z,75.79
2022-10-30T03:19:44.114Z,75.89
2022-10-30T03:20:44.122Z,75.99
2022-10-30T03:21:44.131Z,76.09
2022-10-30T03:22:44.078Z,76.60
2022-10-30T03:23:44.071Z,76.54
2022-10-30T03:24:44.056Z,76.64
2022-10-30T03:25:44.066Z,76.64
2022-10-30T03:26:44.072Z,76.94
2022-10-30T03:27:44.033Z,76.94
2022-10-30T03:28:44.067Z,77.34
2022-10-30T03:29:44.018Z,77.38
2022-10-30T03:30:44.006Z,77.48
2022-10-30T03:31:44.022Z,77.69
2022-10-30T03:32:43.979Z,77.69
2022-10-30T03:33:43.991Z,77.69
2022-10-30T03:34:43.949Z,77.89
2022-10-30T03:35:43.965Z,77.59
2022-10-30T03:36:43.961Z,77.59
2022-10-30T03:37:43.924Z,77.59
2022-10-30T03:38:43.907Z,77.48
2022-10-30T03:39:43.921Z,77.79
2022-10-30T03:40:43.898Z,77.89
2022-10-30T03:41:43.905Z,77.69
2022-10-30T03:42:43.873Z,78.09
2022-10-30T03:43:43.868Z,78.19
2022-10-30T03:44:43.844Z,78.09
2022-10-30T03:45:43.841Z,77.69
2022-10-30T03:46:43.856Z,77.59
2022-10-30T03:47:43.814Z,77.28
2022-10-30T03:48:43.806Z,77.08
2022-10-30T03:49:43.809Z,77.45
2022-10-30T03:50:43.779Z,76.74
2022-10-30T03:51:43.800Z,77.04
2022-10-30T03:52:43.763Z,76.94
2022-10-30T03:53:43.754Z,76.64
2022-10-30T03:54:43.739Z,77.08
2022-10-30T03:55:43.743Z,77.18
2022-10-30T03:56:43.737Z,77.08
2022-10-30T03:57:43.705Z,77.28
2022-10-30T03:58:43.745Z,77.18
2022-10-30T03:59:43.681Z,76.98
2022-10-30T04:00:43.681Z,77.79
2022-10-30T04:01:43.844Z,78.40
2022-10-30T04:02:43.649Z,78.30
2022-10-30T04:03:43.648Z,78.19
2022-10-30T04:04:43.623Z,78.09
2022-10-30T04:05:43.625Z,78.19
2022-10-30T04:06:43.628Z,77.89
2022-10-30T04:07:43.601Z,77.99
2022-10-30T04:08:43.588Z,78.09
2022-10-30T04:09:43.627Z,77.89
2022-10-30T04:10:43.633Z,77.99
2022-10-30T04:11:43.579Z,77.89
2022-10-30T04:12:43.541Z,78.30
2022-10-30T04:13:43.535Z,78.09
2022-10-30T04:14:43.518Z,77.59
2022-10-30T04:15:43.546Z,77.59
2022-10-30T04:16:43.562Z,77.59
2022-10-30T04:17:43.493Z,77.69
2022-10-30T04:18:43.479Z,77.79
2022-10-30T04:19:43.475Z,77.38
2022-10-30T04:20:43.469Z,77.99
2022-10-30T04:21:43.468Z,77.99
2022-10-30T04:22:43.437Z,77.59
2022-10-30T04:23:43.444Z,77.69
2022-10-30T04:24:43.418Z,77.99
2022-10-30T04:25:43.426Z,78.19
2022-10-30T04:26:43.421Z,77.89
2022-10-30T04:27:43.422Z,78.09
2022-10-30T04:28:43.410Z,78.30
2022-10-30T04:29:43.364Z,78.60
2022-10-30T04:30:43.363Z,78.19
2022-10-30T04:31:43.355Z,77.99
2022-10-30T04:32:43.352Z,77.75
2022-10-30T04:33:43.334Z,77.45
2022-10-30T04:34:43.304Z,77.45
2022-10-30T04:35:43.289Z,77.25
2022-10-30T04:36:43.314Z,76.84
2022-10-30T04:37:43.264Z,77.45
2022-10-30T04:38:43.259Z,77.48
2022-10-30T04:39:46.244Z,78.40
2022-10-30T04:40:43.240Z,77.89
2022-10-30T04:41:43.258Z,78.19
2022-10-30T04:42:43.295Z,78.50
2022-10-30T04:43:43.265Z,78.50
2022-10-30T04:44:43.235Z,78.40
2022-10-30T04:45:52.933Z,78.53
2022-10-30T04:46:49.699Z,78.44
2022-10-30T04:47:43.172Z,78.53
2022-10-30T04:48:43.208Z,78.44
2022-10-30T04:49:43.147Z,78.33
2022-10-30T04:50:43.148Z,78.64
2022-10-30T04:51:43.152Z,79.14
2022-10-30T04:52:43.123Z,78.84
2022-10-30T04:53:43.105Z,78.53
2022-10-30T04:54:43.088Z,78.84
2022-10-30T04:55:43.081Z,78.94
2022-10-30T04:56:43.119Z,79.04
2022-10-30T04:57:43.061Z,78.64
2022-10-30T04:58:43.057Z,79.04
2022-10-30T04:59:43.042Z,78.64
2022-10-30T05:00:43.042Z,78.64
2022-10-30T05:01:43.123Z,78.74
2022-10-30T05:03:43.012Z,78.94
2022-10-30T05:04:42.998Z,78.94
2022-10-30T05:05:42.985Z,78.84
2022-10-30T05:06:43.000Z,78.64
2022-10-30T05:07:42.953Z,78.84
2022-10-30T05:08:42.957Z,78.94
2022-10-30T05:09:42.964Z,79.38
2022-10-30T05:10:42.939Z,79.69
2022-10-30T05:11:42.953Z,79.79
2022-10-30T05:12:42.917Z,80.30
2022-10-30T05:13:42.895Z,80.74
2022-10-30T05:14:42.886Z,81.05
2022-10-30T05:15:42.865Z,80.64
2022-10-30T05:16:42.879Z,81.05
2022-10-30T05:17:42.846Z,80.64
2022-10-30T05:18:42.846Z,80.74
2022-10-30T05:19:42.853Z,81.05
2022-10-30T05:20:42.816Z,81.76
2022-10-30T05:21:50.469Z,81.45
2022-10-30T05:22:50.318Z,81.25
2022-10-30T05:23:49.271Z,81.05
2022-10-30T05:24:49.299Z,80.94
2022-10-30T05:25:49.291Z,81.15
2022-10-30T05:26:50.541Z,81.05
2022-10-30T05:27:49.261Z,80.74
2022-10-30T05:28:42.740Z,80.64
2022-10-30T05:29:49.228Z,80.84
2022-10-30T05:30:42.731Z,80.54
2022-10-30T05:31:42.729Z,80.84
2022-10-30T05:32:42.693Z,80.44
2022-10-30T05:33:42.686Z,80.94
2022-10-30T05:34:42.683Z,81.05
2022-10-30T05:35:42.659Z,80.94
2022-10-30T05:36:42.675Z,81.05
2022-10-30T05:37:42.661Z,81.05
2022-10-30T05:38:42.629Z,80.84
2022-10-30T05:39:42.645Z,80.84
2022-10-30T05:40:42.661Z,80.94
2022-10-30T05:41:42.627Z,80.94
2022-10-30T05:42:42.590Z,81.25
2022-10-30T05:43:42.573Z,81.25
2022-10-30T05:45:02.223Z,81.70
2022-10-30T05:45:42.574Z,81.29
2022-10-30T05:46:42.682Z,81.56
2022-10-30T05:47:42.538Z,81.15
2022-10-30T05:48:42.558Z,81.35
2022-10-30T05:49:42.513Z,81.05
2022-10-30T05:50:42.534Z,80.33
2022-10-30T05:51:42.484Z,80.40
2022-10-30T05:52:42.462Z,80.10
2022-10-30T05:53:42.441Z,79.99
2022-10-30T05:54:42.441Z,79.90
2022-10-30T05:55:42.417Z,79.79
2022-10-30T05:56:42.396Z,79.49
2022-10-30T05:57:42.412Z,79.55
2022-10-30T05:58:42.385Z,79.14
2022-10-30T05:59:42.351Z,79.55
2022-10-30T06:00:42.377Z,79.55
2022-10-30T06:01:42.373Z,79.45
2022-10-30T06:02:42.397Z,79.45
2022-10-30T06:03:42.317Z,79.55
2022-10-30T06:04:42.306Z,79.55
2022-10-30T06:05:42.294Z,79.45
2022-10-30T06:06:42.282Z,79.25
2022-10-30T06:07:42.299Z,79.49
2022-10-30T06:08:42.300Z,80.10
2022-10-30T06:09:42.291Z,79.69
2022-10-30T06:10:42.241Z,79.79
2022-10-30T06:11:42.226Z,79.99
2022-10-30T06:12:42.241Z,80.33
2022-10-30T06:13:42.206Z,80.24
2022-10-30T06:14:42.195Z,80.13
2022-10-30T06:15:42.175Z,80.24
2022-10-30T06:16:48.695Z,80.54
2022-10-30T06:17:50.089Z,80.33
2022-10-30T06:18:48.658Z,80.44
2022-10-30T06:19:48.641Z,80.54
2022-10-30T06:20:49.660Z,80.54
2022-10-30T06:21:48.619Z,80.74
2022-10-30T06:22:42.149Z,80.74
2022-10-30T06:23:42.094Z,80.84
2022-10-30T06:24:42.097Z,80.74
2022-10-30T06:25:42.083Z,80.84
2022-10-30T06:26:42.088Z,80.84
2022-10-30T06:27:42.075Z,80.84
2022-10-30T06:28:42.059Z,80.94
2022-10-30T06:29:42.058Z,80.84
2022-10-30T06:30:42.035Z,80.94
2022-10-30T06:31:42.025Z,80.74
2022-10-30T06:32:42.033Z,80.44
2022-10-30T06:33:41.992Z,80.33
2022-10-30T06:34:42.003Z,80.13
2022-10-30T06:35:41.972Z,80.33
2022-10-30T06:36:42.006Z,80.33
2022-10-30T06:37:41.979Z,80.13
2022-10-30T06:38:41.943Z,80.24
2022-10-30T06:39:41.947Z,80.33
2022-10-30T06:40:41.931Z,80.13
2022-10-30T06:41:41.933Z,80.24
2022-10-30T06:42:41.922Z,80.33
2022-10-30T06:43:41.909Z,80.24
2022-10-30T06:44:41.878Z,80.64
2022-10-30T06:45:41.863Z,81.09
2022-10-30T06:46:41.854Z,80.98
2022-10-30T06:47:41.882Z,80.78
2022-10-30T06:48:41.848Z,80.74
2022-10-30T06:49:41.836Z,80.64
2022-10-30T06:50:41.814Z,80.74
2022-10-30T06:51:41.802Z,80.94
2022-10-30T06:52:41.817Z,81.05
2022-10-30T06:53:41.790Z,80.98
2022-10-30T06:54:41.776Z,81.19
2022-10-30T06:55:41.778Z,81.09
2022-10-30T06:56:41.748Z,81.09
2022-10-30T06:57:41.762Z,80.98
2022-10-30T06:58:41.730Z,80.74
2022-10-30T06:59:48.237Z,80.54
2022-10-30T07:01:41.776Z,80.24
2022-10-30T07:02:41.742Z,79.69
2022-10-30T07:03:41.673Z,79.18
2022-10-30T07:04:41.666Z,79.08
2022-10-30T07:05:41.655Z,79.08
2022-10-30T07:06:41.681Z,79.08
2022-10-30T07:07:41.663Z,79.08
2022-10-30T07:08:41.619Z,79.18
2022-10-30T07:09:41.611Z,79.59
2022-10-30T07:10:41.601Z,79.79
2022-10-30T07:11:41.645Z,79.79
2022-10-30T07:12:41.609Z,79.38
2022-10-30T07:13:41.568Z,79.49
2022-10-30T07:14:41.588Z,79.59
2022-10-30T07:16:41.767Z,80.24
2022-10-30T07:17:41.567Z,80.44
2022-10-30T07:18:41.528Z,80.64
2022-10-30T07:19:41.501Z,80.74
2022-10-30T07:20:41.520Z,80.44
2022-10-30T07:21:41.500Z,80.40
2022-10-30T07:22:42.280Z,80.30
2022-10-30T07:23:41.473Z,80.19
2022-10-30T07:24:41.476Z,80.10
2022-10-30T07:25:41.504Z,79.90
2022-10-30T07:26:41.467Z,79.90
2022-10-30T07:27:41.447Z,79.79
2022-10-30T07:28:41.447Z,79.79
2022-10-30T07:29:41.396Z,79.90
2022-10-30T07:30:41.390Z,80.19
2022-10-30T07:31:42.324Z,80.19
2022-10-30T07:32:41.400Z,80.40
2022-10-30T07:33:41.364Z,80.30
2022-10-30T07:34:41.351Z,80.30
2022-10-30T07:35:41.333Z,80.50
2022-10-30T07:36:41.353Z,80.60
2022-10-30T07:37:41.335Z,81.01
2022-10-30T07:38:41.305Z,81.41
2022-10-30T07:39:41.289Z,81.62
2022-10-30T07:40:41.300Z,81.72
2022-10-30T07:41:44.738Z,81.72
2022-10-30T07:42:41.290Z,81.72
2022-10-30T07:43:41.247Z,81.82
2022-10-30T07:44:41.243Z,81.72
2022-10-30T07:45:41.228Z,81.72
2022-10-30T07:46:41.236Z,81.41
2022-10-30T07:47:41.240Z,81.18
2022-10-30T07:48:41.202Z,81.18
2022-10-30T07:49:41.178Z,81.18
2022-10-30T07:50:41.174Z,81.48
2022-10-30T07:51:41.177Z,81.78
2022-10-30T07:52:41.183Z,81.58
2022-10-30T07:53:41.148Z,81.58
2022-10-30T07:54:41.140Z,81.27
2022-10-30T07:55:41.139Z,81.48
2022-10-30T07:56:41.126Z,81.38
2022-10-30T07:57:41.120Z,81.38
2022-10-30T07:58:45.208Z,81.38
2022-10-30T07:59:41.125Z,81.24
2022-10-30T08:00:41.088Z,81.44
2022-10-30T08:01:41.260Z,80.73
2022-10-30T08:02:41.273Z,81.04
2022-10-30T08:03:41.070Z,80.63
2022-10-30T08:04:41.029Z,80.73
2022-10-30T08:05:41.017Z,80.69
2022-10-30T08:06:41.016Z,80.59
2022-10-30T08:07:40.999Z,80.59
2022-10-30T08:08:43.379Z,79.88
2022-10-30T08:09:40.977Z,79.74
2022-10-30T08:10:40.957Z,79.64
2022-10-30T08:11:40.984Z,79.03
2022-10-30T08:12:40.943Z,79.03
2022-10-30T08:13:40.943Z,79.03
2022-10-30T08:14:40.949Z,79.30
2022-10-30T08:15:40.902Z,79.00
2022-10-30T08:16:40.904Z,79.00
2022-10-30T08:17:40.926Z,79.10
2022-10-30T08:18:40.900Z,79.34
2022-10-30T08:19:40.866Z,79.34
2022-10-30T08:20:40.922Z,79.30
2022-10-30T08:21:40.836Z,79.30
2022-10-30T08:22:40.839Z,79.10
2022-10-30T08:23:40.848Z,79.30
2022-10-30T08:24:40.807Z,79.20
2022-10-30T08:25:40.802Z,79.30
2022-10-30T08:26:40.784Z,79.00
2022-10-30T08:27:40.778Z,78.49
2022-10-30T08:28:40.788Z,78.69
2022-10-30T08:29:40.810Z,78.15
2022-10-30T08:30:40.737Z,78.25
2022-10-30T08:31:40.737Z,78.25
2022-10-30T08:32:40.717Z,78.45
2022-10-30T08:33:40.761Z,78.35
2022-10-30T08:34:40.715Z,78.35
2022-10-30T08:35:40.694Z,77.91
2022-10-30T08:36:42.744Z,77.81
2022-10-30T08:37:40.688Z,77.91
2022-10-30T08:38:40.684Z,77.50
2022-10-30T08:39:40.653Z,77.40
2022-10-30T08:40:40.641Z,76.79
2022-10-30T08:41:40.640Z,76.86
2022-10-30T08:42:40.614Z,76.97
2022-10-30T08:43:40.627Z,77.17
2022-10-30T08:44:40.594Z,77.17
2022-10-30T08:45:40.586Z,76.35
2022-10-30T08:46:40.567Z,76.05
2022-10-30T08:47:40.562Z,75.81
2022-10-30T08:48:40.577Z,75.61
2022-10-30T08:49:40.546Z,76.02
2022-10-30T08:50:40.546Z,75.41
2022-10-30T08:51:40.529Z,75.41
2022-10-30T08:52:40.539Z,75.21
2022-10-30T08:53:40.551Z,75.61
2022-10-30T08:54:40.507Z,75.61
2022-10-30T08:55:40.501Z,75.41
2022-10-30T08:56:40.469Z,75.17
2022-10-30T08:57:40.539Z,74.57
2022-10-30T08:58:40.443Z,74.57
2022-10-30T08:59:40.443Z,74.26
2022-10-30T09:00:40.433Z,74.57
2022-10-30T09:01:40.546Z,74.57
2022-10-30T09:02:40.613Z,74.77
2022-10-30T09:03:40.426Z,74.46
2022-10-30T09:04:40.406Z,74.26
2022-10-30T09:05:40.419Z,74.57
2022-10-30T09:06:40.410Z,74.66
2022-10-30T09:07:40.357Z,74.66
2022-10-30T09:08:40.435Z,74.46
2022-10-30T09:09:40.341Z,74.43
2022-10-30T09:10:40.316Z,73.96
2022-10-30T09:11:40.327Z,73.96
2022-10-30T09:12:40.299Z,74.16
2022-10-30T09:13:40.310Z,73.96
2022-10-30T09:14:40.282Z,73.82
2022-10-30T09:15:40.269Z,73.93
2022-10-30T09:16:40.258Z,73.93
2022-10-30T09:17:40.268Z,73.82
2022-10-30T09:18:40.256Z,73.93
2022-10-30T09:19:40.276Z,74.02
2022-10-30T09:20:40.208Z,73.42
2022-10-30T09:21:40.208Z,73.22
2022-10-30T09:22:40.190Z,73.32
2022-10-30T09:23:40.212Z,73.42
2022-10-30T09:24:40.224Z,73.32
2022-10-30T09:25:40.163Z,73.82
2022-10-30T09:26:40.155Z,73.32
2022-10-30T09:27:40.155Z,73.52
2022-10-30T09:28:40.145Z,73.49
2022-10-30T09:29:40.127Z,73.49
2022-10-30T09:30:40.111Z,73.28
2022-10-30T09:31:40.098Z,73.58
2022-10-30T09:32:40.106Z,73.08
2022-10-30T09:33:40.076Z,72.98
2022-10-30T09:34:40.076Z,72.98
2022-10-30T09:35:40.063Z,72.27
2022-10-30T09:36:40.081Z,72.17
2022-10-30T09:37:40.064Z,72.24
2022-10-30T09:38:40.026Z,72.34
2022-10-30T09:39:40.018Z,71.73
2022-10-30T09:40:39.999Z,71.53
2022-10-30T09:41:39.994Z,71.73
2022-10-30T09:42:40.001Z,71.53
2022-10-30T09:43:39.973Z,71.53
2022-10-30T09:44:39.961Z,71.94
2022-10-30T09:45:39.953Z,72.04
2022-10-30T09:46:39.953Z,71.94
2022-10-30T09:47:39.929Z,72.14
2022-10-30T09:48:39.940Z,72.14
2022-10-30T09:49:39.919Z,71.84
2022-10-30T09:50:40.015Z,71.33
2022-10-30T09:51:39.910Z,71.30
2022-10-30T09:52:39.901Z,71.40
2022-10-30T09:53:39.881Z,71.00
2022-10-30T09:54:39.866Z,71.10
2022-10-30T09:55:39.841Z,71.00
2022-10-30T09:56:39.829Z,70.89
2022-10-30T09:57:39.856Z,70.59
2022-10-30T09:58:39.834Z,70.59
2022-10-30T09:59:39.799Z,70.69
2022-10-30T10:00:39.782Z,70.39
2022-10-30T10:01:39.931Z,71.00
2022-10-30T10:02:39.860Z,70.49
2022-10-30T10:03:39.870Z,70.29
2022-10-30T10:04:39.742Z,70.49
2022-10-30T10:05:39.732Z,70.36
2022-10-30T10:06:39.726Z,70.66
2022-10-30T10:07:39.713Z,70.46
2022-10-30T10:08:39.745Z,70.56
2022-10-30T10:09:39.729Z,70.56
2022-10-30T10:10:39.678Z,71.06
2022-10-30T10:11:39.685Z,71.26
2022-10-30T10:12:39.663Z,71.37
2022-10-30T10:13:39.689Z,71.17
2022-10-30T10:14:39.637Z,71.06
2022-10-30T10:15:39.629Z,71.03
2022-10-30T10:16:39.608Z,71.13
2022-10-30T10:17:39.631Z,70.73
2022-10-30T10:18:39.631Z,70.32
2022-10-30T10:19:39.594Z,70.73
2022-10-30T10:20:39.577Z,70.42
2022-10-30T10:21:39.563Z,69.82
2022-10-30T10:22:39.580Z,69.92
2022-10-30T10:23:39.543Z,69.82
2022-10-30T10:24:39.532Z,70.02
2022-10-30T10:25:39.526Z,70.32
2022-10-30T10:26:39.532Z,70.32
2022-10-30T10:27:39.504Z,69.92
2022-10-30T10:28:39.511Z,70.42
2022-10-30T10:29:39.483Z,70.83
2022-10-30T10:30:39.518Z,70.93
2022-10-30T10:31:39.496Z,71.03
2022-10-30T10:32:39.460Z,70.42
2022-10-30T10:33:39.486Z,70.32
2022-10-30T10:34:39.435Z,70.62
2022-10-30T10:35:39.420Z,70.62
2022-10-30T10:36:39.405Z,70.32
2022-10-30T10:37:39.414Z,70.32
2022-10-30T10:38:39.409Z,70.12
2022-10-30T10:39:39.377Z,70.53
2022-10-30T10:40:39.374Z,69.69
2022-10-30T10:41:39.362Z,69.29
2022-10-30T10:42:39.339Z,69.09
2022-10-30T10:43:39.370Z,0.00
2022-10-30T10:44:39.344Z,0.00
2022-10-30T10:45:39.306Z,0.00
2022-10-30T10:46:39.301Z,0.00
2022-10-30T10:47:39.285Z,0.00
2022-10-30T10:48:39.297Z,0.00
2022-10-30T10:49:40.257Z,0.00
2022-10-30T10:50:39.290Z,0.00
2022-10-30T10:51:39.248Z,0.00
2022-10-30T10:52:39.242Z,0.00
2022-10-30T10:53:39.255Z,0.00
2022-10-30T10:54:39.211Z,0.00
2022-10-30T10:55:39.204Z,0.00
2022-10-30T10:56:39.199Z,0.00
2022-10-30T10:57:39.211Z,0.00
2022-10-30T10:58:39.189Z,0.00
2022-10-30T10:59:39.176Z,0.00
2022-10-30T11:00:39.156Z,0.00
2022-10-30T11:01:39.291Z,0.00
2022-10-30T11:02:39.230Z,0.00
2022-10-30T11:03:39.182Z,0.00
2022-10-30T11:04:39.144Z,0.00
2022-10-30T11:05:39.114Z,0.00
2022-10-30T11:06:39.084Z,0.00
2022-10-30T11:07:39.082Z,0.00
2022-10-30T11:08:39.131Z,0.00
2022-10-30T11:09:39.091Z,0.00
2022-10-30T11:10:39.064Z,0.00
2022-10-30T11:11:39.040Z,0.00
2022-10-30T11:12:39.026Z,0.00
2022-10-30T11:13:39.055Z,0.00
2022-10-30T11:14:39.008Z,0.00
2022-10-30T11:15:38.997Z,0.00
2022-10-30T11:16:38.998Z,0.00
2022-10-30T11:17:38.974Z,0.00
2022-10-30T11:18:38.989Z,0.00
2022-10-30T11:19:38.970Z,0.00
2022-10-30T11:20:38.957Z,0.00
2022-10-30T11:21:38.936Z,0.00
2022-10-30T11:22:38.954Z,0.00
2022-10-30T11:23:38.931Z,0.00
2022-10-30T11:24:38.904Z,0.00
2022-10-30T11:25:38.889Z,0.00
2022-10-30T11:26:38.883Z,0.00
2022-10-30T11:27:38.879Z,0.00
2022-10-30T11:28:38.900Z,0.00
2022-10-30T11:29:38.868Z,0.00
2022-10-30T11:30:38.842Z,0.00
2022-10-30T11:31:38.839Z,0.00
2022-10-30T11:32:38.863Z,0.00
2022-10-30T11:33:38.821Z,0.00
2022-10-30T11:34:38.840Z,0.00
2022-10-30T11:35:38.803Z,0.00
2022-10-30T11:36:38.773Z,0.00
2022-10-30T11:37:45.309Z,0.00
2022-10-30T11:38:46.272Z,0.00
2022-10-30T11:39:45.266Z,0.00
2022-10-30T11:40:38.748Z,0.00
2022-10-30T11:41:38.754Z,0.00
2022-10-30T11:42:38.720Z,0.00
2022-10-30T11:43:38.703Z,0.00
2022-10-30T11:44:38.736Z,0.00
2022-10-30T11:45:38.822Z,0.00
2022-10-30T11:46:38.695Z,0.00
2022-10-30T11:47:38.686Z,0.00
2022-10-30T11:48:38.654Z,0.00
2022-10-30T11:49:38.700Z,0.00
2022-10-30T11:50:38.652Z,0.00
2022-10-30T11:51:38.725Z,0.00
2022-10-30T11:52:38.614Z,0.00
2022-10-30T11:53:38.598Z,0.00
2022-10-30T11:54:38.620Z,0.00
2022-10-30T11:55:38.615Z,0.00
2022-10-30T11:56:38.560Z,0.00
2022-10-30T11:57:38.559Z,0.00
2022-10-30T11:58:38.538Z,0.00
2022-10-30T11:59:38.562Z,0.00
2022-10-30T12:00:38.518Z,0.00
2022-10-30T12:01:38.578Z,0.00
2022-10-30T12:03:38.494Z,0.00
2022-10-30T12:04:38.556Z,0.00
2022-10-30T12:05:38.489Z,0.00
2022-10-30T12:06:38.459Z,0.00
2022-10-30T12:07:38.489Z,0.00
2022-10-30T12:08:38.437Z,0.00
2022-10-30T12:09:38.463Z,0.00
2022-10-30T12:10:38.439Z,0.00
2022-10-30T12:11:38.516Z,0.00
2022-10-30T12:12:38.399Z,0.00
2022-10-30T12:13:38.402Z,0.00
2022-10-30T12:14:38.411Z,0.00
2022-10-30T12:15:38.372Z,0.00
2022-10-30T12:16:38.360Z,0.00
2022-10-30T12:17:38.350Z,0.00
2022-10-30T12:18:38.346Z,0.00
2022-10-30T12:19:38.366Z,0.00
2022-10-30T12:20:38.320Z,0.00
2022-10-30T12:21:38.311Z,0.00
2022-10-30T12:22:38.298Z,0.00
2022-10-30T12:23:38.278Z,0.00
2022-10-30T12:24:38.297Z,0.00
2022-10-30T12:25:38.268Z,0.00
2022-10-30T12:26:38.259Z,0.00
2022-10-30T12:27:38.335Z,0.00
2022-10-30T12:28:38.318Z,0.00
2022-10-30T12:30:02.570Z,0.00
2022-10-30T12:30:38.221Z,0.00
2022-10-30T12:31:44.737Z,0.00
2022-10-30T12:32:45.077Z,0.00
2022-10-30T12:33:45.677Z,0.00
2022-10-30T12:34:38.200Z,0.00
2022-10-30T12:35:44.669Z,0.00
2022-10-30T12:36:38.163Z,0.00
2022-10-30T12:37:38.139Z,0.00
2022-10-30T12:38:38.128Z,0.00
2022-10-30T12:39:38.172Z,0.00
2022-10-30T12:40:38.109Z,0.00
2022-10-30T12:41:38.115Z,0.00
2022-10-30T12:42:38.103Z,0.00
2022-10-30T12:43:38.074Z,0.00
2022-10-30T12:44:38.153Z,0.00
2022-10-30T12:45:38.079Z,0.00
2022-10-30T12:46:38.074Z,0.00
2022-10-30T12:47:38.037Z,0.00
2022-10-30T12:48:38.036Z,0.00
2022-10-30T12:49:38.034Z,0.00
2022-10-30T12:50:38.003Z,0.00
2022-10-30T12:51:38.015Z,0.00
2022-10-30T12:52:37.989Z,0.00
2022-10-30T12:53:37.982Z,0.00
2022-10-30T12:54:37.967Z,0.00
2022-10-30T12:55:37.982Z,0.00
2022-10-30T12:56:37.946Z,0.00
2022-10-30T12:57:37.927Z,0.00
2022-10-30T12:58:37.948Z,0.00
2022-10-30T12:59:37.912Z,0.00
2022-10-30T13:00:37.915Z,0.00
2022-10-30T13:01:38.017Z,0.00
2022-10-30T13:02:37.868Z,0.00
2022-10-30T13:03:37.910Z,0.00